Time;durP1;ratioP1;P1;durP2;ratioP2;P2;SDS_P1;SDS_P2;PMS_P1;PMS_P2;Temp;Humidity;BMP_temperature;BMP_pressure;BME280_temperature;BME280_humidity;BME280_pressure;Samples;Min_cycle;Max_cycle;Signal;HPM_P1;HPM_P2
2023/10/26 00:02:18;;;;;;;6.27;5.73;;;;;;;;;;5027504;28;20201;-48
2023/10/26 00:04:44;;;;;;;5.83;5.33;;;;;;;;;;5022445;28;20201;-49
2023/10/26 00:07:10;;;;;;;5.83;5.33;;;;;;;;;;5025479;28;20251;-49
2023/10/26 00:09:36;;;;;;;5.57;5.07;;;;;;;;;;5023776;28;20197;-49
2023/10/26 00:12:04;;;;;;;7.20;5.87;;;;;;;;;;5023880;28;20228;-49
2023/10/26 00:14:30;;;;;;;6.87;5.87;;;;;;;;;;5022245;28;20774;-49
2023/10/26 00:16:56;;;;;;;5.83;5.23;;;;;;;;;;5023541;28;20228;-49
2023/10/26 00:19:22;;;;;;;6.17;5.60;;;;;;;;;;5025312;28;20231;-49
2023/10/26 00:21:48;;;;;;;5.53;5.03;;;;;;;;;;5021336;28;20197;-49
2023/10/26 00:24:14;;;;;;;6.60;5.00;;;;;;;;;;5025361;28;20259;-49
2023/10/26 00:26:40;;;;;;;6.83;5.47;;;;;;;;;;5021894;28;20223;-48
2023/10/26 00:29:08;;;;;;;6.27;5.73;;;;;;;;;;5021672;28;20649;-49
2023/10/26 00:31:34;;;;;;;6.17;5.60;;;;;;;;;;5023374;28;20316;-49
2023/10/26 00:34:00;;;;;;;5.93;5.43;;;;;;;;;;5018457;28;20208;-49
2023/10/26 00:36:26;;;;;;;6.07;5.57;;;;;;;;;;5021762;28;20243;-48
2023/10/26 00:38:52;;;;;;;7.30;6.10;;;;;;;;;;5019836;28;20209;-49
2023/10/26 00:41:18;;;;;;;6.00;5.43;;;;;;;;;;5021798;28;20206;-49
2023/10/26 00:43:45;;;;;;;6.00;5.50;;;;;;;;;;5019823;28;20332;-49
2023/10/26 00:46:12;;;;;;;6.00;5.50;;;;;;;;;;5019774;28;20668;-49
2023/10/26 00:48:39;;;;;;;6.10;5.60;;;;;;;;;;5023251;28;20200;-49
2023/10/26 00:51:05;;;;;;;5.90;5.40;;;;;;;;;;5019156;28;20200;-49
2023/10/26 00:53:32;;;;;;;5.57;5.07;;;;;;;;;;5021699;28;20725;-49
2023/10/26 00:55:59;;;;;;;6.00;5.50;;;;;;;;;;5019866;28;20247;-49
2023/10/26 00:58:26;;;;;;;6.27;5.77;;;;;;;;;;5018524;28;20225;-47
2023/10/26 01:00:52;;;;;;;7.30;6.57;;;;;;;;;;5019652;28;20200;-49
2023/10/26 01:03:20;;;;;;;6.77;6.07;;;;;;;;;;5019867;28;20208;-47
2023/10/26 01:05:46;;;;;;;6.80;6.20;;;;;;;;;;5020099;28;20251;-47
2023/10/26 01:08:12;;;;;;;6.30;5.80;;;;;;;;;;5018025;28;20222;-47
2023/10/26 01:10:38;;;;;;;6.93;5.87;;;;;;;;;;5021266;28;20623;-47
2023/10/26 01:13:04;;;;;;;6.27;5.77;;;;;;;;;;5019508;28;20278;-47
2023/10/26 01:15:30;;;;;;;6.57;5.97;;;;;;;;;;5018012;28;20214;-47
2023/10/26 01:17:56;;;;;;;6.70;6.10;;;;;;;;;;5017749;28;20221;-47
2023/10/26 01:20:24;;;;;;;6.43;5.93;;;;;;;;;;5021164;28;20231;-47
2023/10/26 01:22:51;;;;;;;7.07;6.47;;;;;;;;;;5021121;28;20199;-47
2023/10/26 01:25:17;;;;;;;6.90;6.40;;;;;;;;;;5018036;28;20655;-47
2023/10/26 01:27:43;;;;;;;6.33;5.83;;;;;;;;;;5019350;28;20201;-47
2023/10/26 01:30:10;;;;;;;6.93;6.33;;;;;;;;;;5019549;28;20201;-47
2023/10/26 01:32:36;;;;;;;6.53;5.93;;;;;;;;;;5017508;28;20693;-49
2023/10/26 01:35:03;;;;;;;7.27;6.67;;;;;;;;;;5019630;28;20236;-46
2023/10/26 01:37:29;;;;;;;7.17;6.57;;;;;;;;;;5019381;28;20220;-47
2023/10/26 01:39:56;;;;;;;7.93;7.23;;;;;;;;;;5017534;28;20515;-47
2023/10/26 01:42:22;;;;;;;7.63;6.93;;;;;;;;;;5017742;28;20237;-47
2023/10/26 01:44:48;;;;;;;8.53;7.83;;;;;;;;;;5019273;28;20720;-47
2023/10/26 01:47:14;;;;;;;8.60;7.90;;;;;;;;;;5019526;28;20672;-47
2023/10/26 01:49:40;;;;;;;8.27;7.57;;;;;;;;;;5017658;28;20199;-47
2023/10/26 01:52:06;;;;;;;9.00;8.10;;;;;;;;;;5017335;28;20624;-47
2023/10/26 01:54:32;;;;;;;8.93;8.13;;;;;;;;;;5026237;28;20216;-48
2023/10/26 01:56:59;;;;;;;8.33;7.63;;;;;;;;;;5031125;28;20197;-48
2023/10/26 01:59:25;;;;;;;8.30;7.60;;;;;;;;;;5031267;28;20215;-48
2023/10/26 02:01:51;;;;;;;9.13;8.33;;;;;;;;;;5032939;28;20193;-48
2023/10/26 02:04:17;;;;;;;8.63;7.90;;;;;;;;;;5034902;28;20204;-48
2023/10/26 02:06:43;;;;;;;8.47;7.67;;;;;;;;;;5034687;28;20200;-48
2023/10/26 02:09:09;;;;;;;8.50;7.70;;;;;;;;;;5034517;28;20189;-48
2023/10/26 02:11:35;;;;;;;9.93;9.00;;;;;;;;;;5034519;28;20239;-48
2023/10/26 02:14:03;;;;;;;8.97;8.23;;;;;;;;;;5034583;28;20228;-48
2023/10/26 02:16:29;;;;;;;9.33;8.57;;;;;;;;;;5034676;28;20233;-48
2023/10/26 02:18:55;;;;;;;9.60;8.77;;;;;;;;;;5034327;28;20533;-47
2023/10/26 02:21:21;;;;;;;9.40;8.47;;;;;;;;;;5034403;28;20656;-47
2023/10/26 02:23:47;;;;;;;8.60;7.87;;;;;;;;;;5034401;28;20224;-47
2023/10/26 02:26:13;;;;;;;9.30;8.50;;;;;;;;;;5034255;28;20283;-47
2023/10/26 02:28:39;;;;;;;9.23;8.43;;;;;;;;;;5034407;28;20571;-48
2023/10/26 02:31:06;;;;;;;8.30;7.60;;;;;;;;;;5034217;28;20224;-48
2023/10/26 02:33:32;;;;;;;9.87;9.07;;;;;;;;;;5034457;28;20229;-48
2023/10/26 02:35:58;;;;;;;8.97;8.17;;;;;;;;;;5034410;28;20302;-48
2023/10/26 02:38:24;;;;;;;10.27;9.37;;;;;;;;;;5034075;28;20792;-47
2023/10/26 02:40:50;;;;;;;9.83;8.93;;;;;;;;;;5033983;28;20200;-48
2023/10/26 02:43:16;;;;;;;11.03;9.90;;;;;;;;;;5034072;28;20241;-47
2023/10/26 02:45:42;;;;;;;10.07;9.17;;;;;;;;;;5034090;28;20209;-47
2023/10/26 02:48:09;;;;;;;9.70;8.90;;;;;;;;;;5034301;28;20208;-48
2023/10/26 02:50:36;;;;;;;11.00;9.27;;;;;;;;;;5034079;28;20200;-48
2023/10/26 02:53:02;;;;;;;10.70;9.70;;;;;;;;;;5033640;28;20229;-47
2023/10/26 02:55:28;;;;;;;10.47;9.57;;;;;;;;;;5033921;28;20197;-48
2023/10/26 02:57:54;;;;;;;11.07;10.07;;;;;;;;;;5033841;28;20207;-48
2023/10/26 03:00:20;;;;;;;10.10;9.20;;;;;;;;;;5033807;28;20217;-49
2023/10/26 03:02:47;;;;;;;10.57;9.47;;;;;;;;;;5033839;28;20197;-48
2023/10/26 03:05:14;;;;;;;10.80;9.80;;;;;;;;;;5033578;28;20272;-48
2023/10/26 03:07:40;;;;;;;10.93;9.50;;;;;;;;;;5033489;28;20197;-48
2023/10/26 03:10:07;;;;;;;11.10;9.60;;;;;;;;;;5033402;28;20203;-48
2023/10/26 03:12:33;;;;;;;9.97;9.17;;;;;;;;;;5033078;28;20224;-48
2023/10/26 03:14:59;;;;;;;9.90;9.00;;;;;;;;;;5033437;28;20193;-48
2023/10/26 03:17:26;;;;;;;9.23;8.43;;;;;;;;;;5033377;28;20184;-48
2023/10/26 03:19:52;;;;;;;9.97;9.07;;;;;;;;;;5033197;28;20607;-48
2023/10/26 03:22:19;;;;;;;9.90;8.97;;;;;;;;;;5033265;28;20651;-48
2023/10/26 03:24:45;;;;;;;9.57;8.57;;;;;;;;;;5033402;28;20629;-48
2023/10/26 03:27:11;;;;;;;8.67;7.83;;;;;;;;;;5033049;28;20233;-48
2023/10/26 03:29:37;;;;;;;9.93;9.03;;;;;;;;;;5033249;28;20287;-48
2023/10/26 03:32:06;;;;;;;9.43;8.53;;;;;;;;;;5032827;28;20617;-48
2023/10/26 03:34:34;;;;;;;8.50;7.70;;;;;;;;;;5033181;28;20232;-48
2023/10/26 03:37:00;;;;;;;9.40;8.50;;;;;;;;;;5032949;28;20193;-48
2023/10/26 03:39:27;;;;;;;9.00;8.30;;;;;;;;;;5033010;28;20239;-48
2023/10/26 03:41:53;;;;;;;9.37;8.57;;;;;;;;;;5024257;28;20196;-48
2023/10/26 03:44:19;;;;;;;9.40;8.27;;;;;;;;;;5019147;28;20236;-48
2023/10/26 03:46:46;;;;;;;8.90;8.10;;;;;;;;;;5019485;28;20252;-48
2023/10/26 03:49:12;;;;;;;8.13;7.43;;;;;;;;;;5003496;28;20212;-48
2023/10/26 03:51:38;;;;;;;8.70;8.00;;;;;;;;;;4999549;28;20197;-48
2023/10/26 03:54:04;;;;;;;8.13;7.47;;;;;;;;;;4999304;28;20220;-48
2023/10/26 03:56:31;;;;;;;8.53;7.73;;;;;;;;;;4999574;28;20200;-47
2023/10/26 03:58:57;;;;;;;9.23;8.40;;;;;;;;;;4999283;28;20290;-47
2023/10/26 04:01:23;;;;;;;9.17;8.30;;;;;;;;;;4999375;28;21228;-47
2023/10/26 04:03:49;;;;;;;8.97;8.17;;;;;;;;;;5001081;28;20197;-48
2023/10/26 04:06:15;;;;;;;7.70;7.00;;;;;;;;;;4999273;28;20224;-47
2023/10/26 04:08:41;;;;;;;8.23;7.43;;;;;;;;;;4999049;28;20202;-48
2023/10/26 04:11:07;;;;;;;8.00;7.30;;;;;;;;;;4998911;28;20201;-47
2023/10/26 04:13:35;;;;;;;8.33;7.53;;;;;;;;;;4999089;28;20260;-47
2023/10/26 04:16:01;;;;;;;7.53;6.83;;;;;;;;;;5000711;28;20252;-47
2023/10/26 04:18:27;;;;;;;7.50;6.90;;;;;;;;;;4997258;28;20285;-47
2023/10/26 04:20:53;;;;;;;8.07;7.37;;;;;;;;;;5000646;28;20198;-46
2023/10/26 04:23:19;;;;;;;7.43;6.83;;;;;;;;;;4998926;28;20194;-47
2023/10/26 04:25:48;;;;;;;7.20;6.60;;;;;;;;;;4999939;28;20198;-47
2023/10/26 04:28:14;;;;;;;7.37;6.67;;;;;;;;;;4998967;28;21359;-47
2023/10/26 04:30:43;;;;;;;7.07;6.47;;;;;;;;;;5000063;28;20244;-46
2023/10/26 04:33:09;;;;;;;6.90;6.30;;;;;;;;;;5000434;28;20222;-46
2023/10/26 04:35:35;;;;;;;7.10;6.50;;;;;;;;;;5000605;28;20215;-46
2023/10/26 04:38:01;;;;;;;7.77;7.07;;;;;;;;;;5000413;28;20205;-52
2023/10/26 04:40:27;;;;;;;7.20;6.60;;;;;;;;;;4998684;28;20210;-46
2023/10/26 04:42:53;;;;;;;6.73;6.03;;;;;;;;;;4998636;28;20221;-46
2023/10/26 04:45:19;;;;;;;7.13;6.53;;;;;;;;;;4998711;28;20614;-47
2023/10/26 04:47:46;;;;;;;6.90;6.30;;;;;;;;;;4998747;28;20248;-46
2023/10/26 04:50:12;;;;;;;6.83;6.23;;;;;;;;;;5000352;28;20301;-46
2023/10/26 04:52:38;;;;;;;7.23;6.63;;;;;;;;;;5000285;28;20237;-46
2023/10/26 04:55:05;;;;;;;7.40;6.80;;;;;;;;;;4998499;28;20688;-47
2023/10/26 04:57:31;;;;;;;8.30;7.50;;;;;;;;;;5000366;28;20690;-48
2023/10/26 04:59:57;;;;;;;7.63;6.93;;;;;;;;;;4999937;28;20259;-47
2023/10/26 05:02:23;;;;;;;7.37;6.63;;;;;;;;;;4998204;28;20704;-48
2023/10/26 05:04:50;;;;;;;7.67;6.97;;;;;;;;;;4999979;28;20240;-48
2023/10/26 05:07:16;;;;;;;7.93;7.17;;;;;;;;;;4998222;28;20206;-46
2023/10/26 05:09:42;;;;;;;8.90;8.10;;;;;;;;;;4998610;28;20197;-46
2023/10/26 05:12:08;;;;;;;10.93;7.97;;;;;;;;;;4997980;28;20218;-46
2023/10/26 05:14:35;;;;;;;8.67;7.90;;;;;;;;;;4998563;28;20208;-47
2023/10/26 05:17:01;;;;;;;8.70;7.77;;;;;;;;;;4999885;28;20244;-46
2023/10/26 05:19:27;;;;;;;8.73;7.83;;;;;;;;;;4998460;28;20197;-46
2023/10/26 05:21:54;;;;;;;8.90;8.10;;;;;;;;;;4998028;28;20204;-46
2023/10/26 05:24:20;;;;;;;8.93;8.03;;;;;;;;;;4997957;28;20668;-46
2023/10/26 05:26:46;;;;;;;8.63;7.93;;;;;;;;;;4999978;28;20296;-46
2023/10/26 05:29:12;;;;;;;9.40;8.60;;;;;;;;;;4997973;28;20197;-46
2023/10/26 05:31:38;;;;;;;9.70;8.80;;;;;;;;;;4997789;28;20308;-46
2023/10/26 05:34:04;;;;;;;8.90;8.10;;;;;;;;;;4997768;28;20225;-46
2023/10/26 05:36:30;;;;;;;8.77;7.97;;;;;;;;;;4999210;28;20193;-46
2023/10/26 05:38:57;;;;;;;9.80;8.90;;;;;;;;;;5001751;28;20275;-46
2023/10/26 05:41:23;;;;;;;9.40;8.60;;;;;;;;;;5003545;28;20208;-46
2023/10/26 05:43:49;;;;;;;9.57;8.67;;;;;;;;;;5000024;28;20233;-47
2023/10/26 05:46:15;;;;;;;9.67;8.87;;;;;;;;;;5003595;28;20663;-46
2023/10/26 05:48:41;;;;;;;8.93;8.03;;;;;;;;;;5001596;28;20200;-46
2023/10/26 05:51:07;;;;;;;9.77;8.83;;;;;;;;;;5001636;28;20197;-47
2023/10/26 05:53:34;;;;;;;10.70;9.50;;;;;;;;;;5001315;28;20228;-46
2023/10/26 05:56:03;;;;;;;9.40;8.60;;;;;;;;;;5003474;28;20249;-49
2023/10/26 05:58:29;;;;;;;9.67;8.77;;;;;;;;;;5002018;28;20229;-46
2023/10/26 06:00:55;;;;;;;10.03;9.13;;;;;;;;;;5001815;28;20245;-46
2023/10/26 06:03:21;;;;;;;10.83;9.73;;;;;;;;;;5001733;28;20660;-47
2023/10/26 06:05:47;;;;;;;10.13;9.23;;;;;;;;;;5001781;28;20568;-47
2023/10/26 06:08:13;;;;;;;9.53;8.63;;;;;;;;;;5003117;28;20205;-48
2023/10/26 06:10:40;;;;;;;10.90;9.90;;;;;;;;;;5001564;28;20300;-48
2023/10/26 06:13:07;;;;;;;10.47;9.37;;;;;;;;;;5008452;28;20696;-48
2023/10/26 06:15:33;;;;;;;10.67;9.67;;;;;;;;;;5015124;28;20209;-48
2023/10/26 06:17:59;;;;;;;9.73;8.90;;;;;;;;;;5014636;28;20577;-48
2023/10/26 06:20:27;;;;;;;9.70;8.83;;;;;;;;;;5014509;28;20280;-48
2023/10/26 06:22:53;;;;;;;8.90;8.10;;;;;;;;;;5014607;28;20198;-48
2023/10/26 06:25:20;;;;;;;11.10;10.10;;;;;;;;;;5014686;28;20198;-48
2023/10/26 06:27:47;;;;;;;10.30;9.37;;;;;;;;;;5014630;28;20266;-48
2023/10/26 06:30:15;;;;;;;10.13;9.23;;;;;;;;;;5013929;28;20225;-48
2023/10/26 06:32:41;;;;;;;9.77;8.87;;;;;;;;;;5014000;28;20280;-48
2023/10/26 06:35:07;;;;;;;10.50;9.50;;;;;;;;;;5014242;28;20201;-48
2023/10/26 06:37:33;;;;;;;9.57;8.77;;;;;;;;;;5014298;28;20727;-48
2023/10/26 06:39:59;;;;;;;10.67;9.67;;;;;;;;;;5014506;28;20296;-48
2023/10/26 06:42:25;;;;;;;10.00;9.03;;;;;;;;;;5014026;28;20229;-48
2023/10/26 06:44:51;;;;;;;9.77;8.90;;;;;;;;;;5014069;28;20744;-49
2023/10/26 06:47:18;;;;;;;9.97;9.07;;;;;;;;;;5013583;28;20249;-49
2023/10/26 06:49:44;;;;;;;11.40;10.30;;;;;;;;;;5013970;28;20202;-48
2023/10/26 06:52:10;;;;;;;9.93;9.03;;;;;;;;;;5014053;28;20235;-49
2023/10/26 06:54:36;;;;;;;10.40;9.30;;;;;;;;;;5014118;28;20209;-47
2023/10/26 06:57:02;;;;;;;12.03;10.93;;;;;;;;;;5013942;28;20197;-48
2023/10/26 06:59:28;;;;;;;11.07;10.07;;;;;;;;;;5013759;28;20640;-48
2023/10/26 07:01:54;;;;;;;10.87;9.97;;;;;;;;;;5013815;28;20613;-48
2023/10/26 07:04:22;;;;;;;10.83;9.90;;;;;;;;;;5013470;28;20209;-48
2023/10/26 07:06:48;;;;;;;11.03;10.03;;;;;;;;;;5013932;28;20284;-47
2023/10/26 07:09:15;;;;;;;12.37;11.27;;;;;;;;;;5013493;28;20217;-47
2023/10/26 07:11:42;;;;;;;12.60;10.70;;;;;;;;;;5013942;28;20223;-47
2023/10/26 07:14:08;;;;;;;11.40;10.30;;;;;;;;;;5013545;28;20236;-48
2023/10/26 07:16:34;;;;;;;10.40;9.53;;;;;;;;;;5011874;28;20202;-50
2023/10/26 07:19:00;;;;;;;11.30;10.30;;;;;;;;;;5012135;28;20278;-48
2023/10/26 07:21:28;;;;;;;11.50;10.50;;;;;;;;;;5013851;28;20229;-48
2023/10/26 07:23:54;;;;;;;11.57;10.47;;;;;;;;;;5013821;28;20202;-48
2023/10/26 07:26:20;;;;;;;12.30;10.97;;;;;;;;;;5013807;28;20198;-48
2023/10/26 07:28:46;;;;;;;10.43;9.53;;;;;;;;;;5013930;28;20219;-48
2023/10/26 07:31:17;;;;;;;11.27;10.27;;;;;;;;;;5013583;28;20708;-48
2023/10/26 07:33:43;;;;;;;11.17;10.03;;;;;;;;;;5013913;28;20312;-48
2023/10/26 07:36:10;;;;;;;12.53;11.40;;;;;;;;;;5013561;28;20197;-48
2023/10/26 07:38:37;;;;;;;12.27;11.07;;;;;;;;;;5013463;28;20198;-48
2023/10/26 07:41:04;;;;;;;12.23;11.13;;;;;;;;;;5013542;28;20256;-48
2023/10/26 07:43:31;;;;;;;11.27;10.17;;;;;;;;;;5013250;28;20233;-50
2023/10/26 07:45:57;;;;;;;12.40;11.20;;;;;;;;;;5013327;28;20244;-50
2023/10/26 07:48:23;;;;;;;12.00;10.90;;;;;;;;;;5013073;28;20198;-49
2023/10/26 07:50:50;;;;;;;12.07;10.97;;;;;;;;;;5013366;28;20201;-49
2023/10/26 07:53:16;;;;;;;12.00;10.90;;;;;;;;;;5013116;28;20312;-49
2023/10/26 07:55:44;;;;;;;12.50;11.30;;;;;;;;;;5009768;28;20185;-50
2023/10/26 07:58:10;;;;;;;12.70;11.40;;;;;;;;;;5011420;28;20206;-49
2023/10/26 08:00:37;;;;;;;12.60;11.50;;;;;;;;;;5012844;28;20194;-49
2023/10/26 08:03:03;;;;;;;13.13;11.93;;;;;;;;;;5011452;28;20718;-50
2023/10/26 08:05:29;;;;;;;13.07;11.87;;;;;;;;;;5012936;28;20218;-48
2023/10/26 08:07:55;;;;;;;13.77;12.47;;;;;;;;;;5012763;28;20201;-49
2023/10/26 08:10:21;;;;;;;13.77;12.47;;;;;;;;;;5012733;28;20185;-48
2023/10/26 08:12:52;;;;;;;13.40;12.13;;;;;;;;;;5012837;28;20316;-48
2023/10/26 08:15:18;;;;;;;14.20;12.80;;;;;;;;;;5012613;28;20779;-49
2023/10/26 08:17:44;;;;;;;13.43;12.23;;;;;;;;;;5012454;28;20289;-49
2023/10/26 08:20:10;;;;;;;13.67;12.27;;;;;;;;;;5012634;28;20197;-49
2023/10/26 08:22:36;;;;;;;13.60;12.30;;;;;;;;;;5009223;28;20201;-49
2023/10/26 08:25:03;;;;;;;13.50;12.10;;;;;;;;;;5009450;28;20196;-49
2023/10/26 08:27:30;;;;;;;13.57;12.30;;;;;;;;;;5007549;28;20200;-48
2023/10/26 08:29:57;;;;;;;13.77;12.47;;;;;;;;;;5007532;28;20256;-49
2023/10/26 08:32:23;;;;;;;13.80;12.50;;;;;;;;;;5009015;28;20336;-48
2023/10/26 08:34:49;;;;;;;13.63;12.27;;;;;;;;;;5007492;28;20202;-49
2023/10/26 08:37:17;;;;;;;14.33;12.87;;;;;;;;;;5011804;28;20213;-49
2023/10/26 08:39:43;;;;;;;12.93;11.63;;;;;;;;;;5007168;28;20198;-49
2023/10/26 08:42:09;;;;;;;14.47;13.07;;;;;;;;;;5006893;28;20276;-48
2023/10/26 08:44:35;;;;;;;13.60;12.30;;;;;;;;;;5010188;28;20698;-49
2023/10/26 08:47:04;;;;;;;13.93;12.63;;;;;;;;;;5005620;28;20224;-49
2023/10/26 08:49:30;;;;;;;13.10;11.90;;;;;;;;;;5005257;28;20687;-50
2023/10/26 08:51:57;;;;;;;13.57;12.27;;;;;;;;;;5006952;28;20198;-48
2023/10/26 08:54:23;;;;;;;12.10;11.00;;;;;;;;;;5006563;28;20794;-48
2023/10/26 08:56:49;;;;;;;12.07;10.97;;;;;;;;;;5003485;28;20201;-48
2023/10/26 08:59:16;;;;;;;11.80;10.70;;;;;;;;;;5008623;28;20625;-49
2023/10/26 09:01:44;;;;;;;12.90;11.53;;;;;;;;;;5003389;28;20521;-47
2023/10/26 09:04:12;;;;;;;13.13;11.83;;;;;;;;;;5008484;28;20201;-48
2023/10/26 09:06:43;;;;;;;12.63;11.37;;;;;;;;;;5004928;28;20654;-49
2023/10/26 09:09:09;;;;;;;11.90;10.77;;;;;;;;;;5004968;28;20280;-48
2023/10/26 09:11:36;;;;;;;13.07;11.77;;;;;;;;;;5011699;28;20229;-48
2023/10/26 09:14:12;;;;;;;11.77;10.57;;;;;;;;;;5014935;28;20233;-49
2023/10/26 09:16:40;;;;;;;13.00;11.80;;;;;;;;;;5011206;28;20243;-49
2023/10/26 09:19:06;;;;;;;12.30;11.20;;;;;;;;;;5011443;28;20197;-48
2023/10/26 09:21:48;;;;;;;12.70;11.50;;;;;;;;;;5011302;28;20197;-48
2023/10/26 09:24:19;;;;;;;12.13;11.03;;;;;;;;;;5009684;28;20280;-49
2023/10/26 09:26:45;;;;;;;12.00;10.90;;;;;;;;;;5010126;28;20224;-48
2023/10/26 09:29:11;;;;;;;10.13;9.13;;;;;;;;;;5016827;28;20592;-48
2023/10/26 09:31:51;;;;;;;11.37;10.27;;;;;;;;;;5012962;28;20217;-49
2023/10/26 09:34:17;;;;;;;10.70;9.70;;;;;;;;;;5009870;28;20229;-49
2023/10/26 09:36:57;;;;;;;11.90;10.83;;;;;;;;;;5009823;28;20213;-48
2023/10/26 09:39:23;;;;;;;10.00;9.00;;;;;;;;;;5006379;28;20292;-49
2023/10/26 09:41:50;;;;;;;10.27;9.37;;;;;;;;;;5011401;28;20248;-48
2023/10/26 09:44:16;;;;;;;10.97;9.97;;;;;;;;;;5015036;28;20251;-49
2023/10/26 09:46:42;;;;;;;10.27;9.17;;;;;;;;;;5011398;28;20288;-49
2023/10/26 09:49:08;;;;;;;10.03;9.20;;;;;;;;;;5013155;28;20909;-49
2023/10/26 09:51:34;;;;;;;10.90;9.77;;;;;;;;;;5012898;28;20193;-50
2023/10/26 09:54:04;;;;;;;9.87;9.03;;;;;;;;;;5011327;28;20268;-50
2023/10/26 09:56:31;;;;;;;10.60;9.60;;;;;;;;;;5011311;28;20544;-50
2023/10/26 09:58:59;;;;;;;10.03;9.13;;;;;;;;;;5009477;28;20518;-49
2023/10/26 10:01:32;;;;;;;8.70;8.00;;;;;;;;;;5011209;28;20201;-50
2023/10/26 10:03:59;;;;;;;9.67;8.73;;;;;;;;;;5012675;28;20689;-49
2023/10/26 10:06:44;;;;;;;10.40;9.40;;;;;;;;;;5010936;28;20466;-50
2023/10/26 10:09:11;;;;;;;9.50;8.50;;;;;;;;;;5009489;28;20291;-49
2023/10/26 10:11:38;;;;;;;8.83;7.93;;;;;;;;;;5010951;28;20216;-49
2023/10/26 10:14:04;;;;;;;7.77;7.07;;;;;;;;;;5011010;28;20795;-50
2023/10/26 10:16:49;;;;;;;8.50;7.70;;;;;;;;;;5012663;28;20193;-50
2023/10/26 10:19:18;;;;;;;7.57;6.93;;;;;;;;;;5012952;28;20268;-50
2023/10/26 10:21:44;;;;;;;8.43;7.60;;;;;;;;;;5010993;28;20596;-50
2023/10/26 10:24:32;;;;;;;8.47;7.67;;;;;;;;;;5009499;28;20559;-49
2023/10/26 10:27:08;;;;;;;7.90;7.20;;;;;;;;;;5007932;28;20213;-49
2023/10/26 10:29:34;;;;;;;7.90;7.20;;;;;;;;;;5009677;28;20202;-49
2023/10/26 10:32:00;;;;;;;7.90;7.20;;;;;;;;;;5008015;28;20312;-48
2023/10/26 10:34:28;;;;;;;7.93;7.23;;;;;;;;;;5006085;28;20321;-50
2023/10/26 10:37:13;;;;;;;7.27;6.57;;;;;;;;;;5006364;28;20197;-49
2023/10/26 10:40:00;;;;;;;7.63;6.93;;;;;;;;;;5007764;28;20267;-49
2023/10/26 10:42:26;;;;;;;7.27;6.67;;;;;;;;;;5004019;28;20841;-49
2023/10/26 10:44:53;;;;;;;7.17;6.50;;;;;;;;;;5006180;28;20198;-49
2023/10/26 10:47:19;;;;;;;7.30;6.70;;;;;;;;;;5004420;28;20201;-49
2023/10/26 10:49:45;;;;;;;7.33;6.27;;;;;;;;;;5005958;28;20195;-49
2023/10/26 10:52:15;;;;;;;6.77;6.07;;;;;;;;;;5007464;28;20201;-50
2023/10/26 10:54:48;;;;;;;7.53;6.50;;;;;;;;;;5004074;28;20228;-49
2023/10/26 10:57:14;;;;;;;6.73;6.10;;;;;;;;;;5005960;28;20212;-49
2023/10/26 10:59:40;;;;;;;6.67;6.07;;;;;;;;;;5005652;28;20201;-49
2023/10/26 11:02:06;;;;;;;6.80;6.20;;;;;;;;;;5009130;28;20280;-49
2023/10/26 11:04:33;;;;;;;6.57;5.97;;;;;;;;;;5010956;28;20197;-49
2023/10/26 11:06:59;;;;;;;6.63;6.03;;;;;;;;;;5010604;28;20300;-49
2023/10/26 11:09:26;;;;;;;6.67;5.97;;;;;;;;;;5007104;28;20236;-49
2023/10/26 11:11:54;;;;;;;6.57;5.97;;;;;;;;;;5008795;28;20198;-48
2023/10/26 11:14:20;;;;;;;7.10;6.40;;;;;;;;;;5008673;28;20226;-49
2023/10/26 11:16:47;;;;;;;6.77;6.17;;;;;;;;;;5006950;28;20260;-49
2023/10/26 11:19:13;;;;;;;6.37;5.77;;;;;;;;;;5006914;28;20200;-49
2023/10/26 11:21:39;;;;;;;7.17;6.47;;;;;;;;;;5008610;28;20232;-49
2023/10/26 11:24:06;;;;;;;7.13;6.43;;;;;;;;;;5006939;28;20197;-49
2023/10/26 11:26:32;;;;;;;6.63;6.03;;;;;;;;;;5005703;28;20626;-49
2023/10/26 11:29:03;;;;;;;7.20;6.60;;;;;;;;;;5013610;28;20684;-49
2023/10/26 11:31:35;;;;;;;7.07;6.37;;;;;;;;;;5013139;28;20230;-50
2023/10/26 11:34:05;;;;;;;7.33;6.57;;;;;;;;;;5013112;28;20432;-50
2023/10/26 11:36:31;;;;;;;7.90;7.20;;;;;;;;;;5013208;28;20212;-49
2023/10/26 11:38:57;;;;;;;7.37;6.67;;;;;;;;;;5013328;28;20291;-50
2023/10/26 11:41:24;;;;;;;7.57;6.60;;;;;;;;;;5013159;28;20216;-49
2023/10/26 11:43:50;;;;;;;8.00;7.10;;;;;;;;;;5012745;28;20594;-50
2023/10/26 11:46:27;;;;;;;7.07;6.37;;;;;;;;;;5013188;28;20201;-50
2023/10/26 11:48:53;;;;;;;7.90;7.20;;;;;;;;;;5013085;28;20205;-50
2023/10/26 11:51:19;;;;;;;8.47;7.67;;;;;;;;;;5013057;28;20212;-50
2023/10/26 11:53:45;;;;;;;8.60;7.70;;;;;;;;;;5013024;28;20715;-50
2023/10/26 11:56:11;;;;;;;8.90;8.00;;;;;;;;;;5010928;28;20570;-49
2023/10/26 11:58:38;;;;;;;8.57;7.67;;;;;;;;;;5011287;28;20222;-48
2023/10/26 12:01:04;;;;;;;9.40;8.50;;;;;;;;;;5013001;28;20225;-47
2023/10/26 12:03:32;;;;;;;8.00;7.20;;;;;;;;;;5012882;28;20225;-48
2023/10/26 12:05:58;;;;;;;7.77;6.97;;;;;;;;;;5012664;28;20297;-50
2023/10/26 12:08:24;;;;;;;8.83;7.93;;;;;;;;;;5012495;28;20276;-50
2023/10/26 12:10:50;;;;;;;8.23;7.40;;;;;;;;;;5012531;28;20292;-49
2023/10/26 12:13:16;;;;;;;10.50;9.40;;;;;;;;;;5013113;28;20240;-51
2023/10/26 12:15:42;;;;;;;9.87;8.87;;;;;;;;;;5012567;28;20197;-49
2023/10/26 12:18:08;;;;;;;10.63;9.63;;;;;;;;;;5012449;28;20201;-50
2023/10/26 12:20:36;;;;;;;11.33;10.13;;;;;;;;;;5012640;28;20236;-50
2023/10/26 12:23:02;;;;;;;11.30;9.43;;;;;;;;;;5012705;28;20263;-50
2023/10/26 12:25:28;;;;;;;11.77;10.57;;;;;;;;;;5012367;28;20204;-49
2023/10/26 12:27:54;;;;;;;11.83;10.63;;;;;;;;;;5012700;28;20198;-50
2023/10/26 12:30:20;;;;;;;11.87;10.67;;;;;;;;;;5012458;28;20204;-49
2023/10/26 12:32:46;;;;;;;11.30;10.20;;;;;;;;;;5012425;28;20221;-49
2023/10/26 12:35:12;;;;;;;12.63;11.33;;;;;;;;;;5012402;28;20247;-49
2023/10/26 12:37:39;;;;;;;11.20;9.93;;;;;;;;;;5012419;28;20208;-49
2023/10/26 12:40:08;;;;;;;11.90;10.70;;;;;;;;;;5012339;28;20212;-50
2023/10/26 12:42:34;;;;;;;12.40;10.73;;;;;;;;;;5012291;28;20245;-49
2023/10/26 12:45:00;;;;;;;11.70;10.07;;;;;;;;;;5012287;28;20323;-49
2023/10/26 12:47:26;;;;;;;12.43;11.10;;;;;;;;;;5011394;28;20716;-50
2023/10/26 12:49:52;;;;;;;12.17;10.97;;;;;;;;;;5012136;28;20197;-50
2023/10/26 12:52:18;;;;;;;12.57;10.73;;;;;;;;;;5012255;28;20735;-49
2023/10/26 12:54:45;;;;;;;12.57;10.77;;;;;;;;;;5012244;28;20247;-49
2023/10/26 12:57:11;;;;;;;12.27;10.63;;;;;;;;;;5012289;28;20198;-49
2023/10/26 12:59:37;;;;;;;12.23;10.93;;;;;;;;;;5012207;28;20204;-49
2023/10/26 13:02:03;;;;;;;11.20;10.10;;;;;;;;;;5012105;28;20207;-49
2023/10/26 13:04:29;;;;;;;12.50;10.50;;;;;;;;;;5011997;28;20192;-49
2023/10/26 13:06:55;;;;;;;12.13;10.83;;;;;;;;;;5011883;28;20204;-49
2023/10/26 13:09:22;;;;;;;11.47;10.30;;;;;;;;;;5012115;28;20193;-48
2023/10/26 13:11:49;;;;;;;12.97;10.60;;;;;;;;;;5012142;28;20201;-49
2023/10/26 13:14:15;;;;;;;13.10;10.07;;;;;;;;;;5012211;28;20225;-49
2023/10/26 13:16:41;;;;;;;12.00;9.70;;;;;;;;;;5012148;28;20205;-49
2023/10/26 13:19:07;;;;;;;11.57;10.37;;;;;;;;;;5012127;28;20205;-49
2023/10/26 13:21:33;;;;;;;11.10;9.77;;;;;;;;;;5012024;28;20606;-49
2023/10/26 13:23:59;;;;;;;9.83;8.67;;;;;;;;;;5011966;28;20197;-49
2023/10/26 13:26:25;;;;;;;9.23;8.33;;;;;;;;;;5012015;28;20255;-49
2023/10/26 13:28:52;;;;;;;11.30;8.57;;;;;;;;;;5011879;28;20293;-49
2023/10/26 13:31:18;;;;;;;10.23;9.23;;;;;;;;;;5011872;28;20221;-49
2023/10/26 13:33:44;;;;;;;9.90;8.30;;;;;;;;;;5011747;28;20225;-49
2023/10/26 13:36:10;;;;;;;7.97;7.13;;;;;;;;;;5011931;28;20193;-49
2023/10/26 13:38:37;;;;;;;10.20;7.70;;;;;;;;;;5011767;28;20680;-49
2023/10/26 13:41:03;;;;;;;9.03;7.03;;;;;;;;;;5012007;28;20202;-49
2023/10/26 13:43:29;;;;;;;8.10;7.30;;;;;;;;;;5011750;28;20765;-49
2023/10/26 13:45:57;;;;;;;8.40;7.30;;;;;;;;;;5011663;28;20198;-49
2023/10/26 13:48:23;;;;;;;7.67;6.97;;;;;;;;;;5009840;28;20202;-49
2023/10/26 13:50:49;;;;;;;9.07;7.63;;;;;;;;;;5011159;28;20209;-49
2023/10/26 13:53:16;;;;;;;8.37;7.40;;;;;;;;;;5011362;28;20747;-49
2023/10/26 13:55:42;;;;;;;9.43;7.10;;;;;;;;;;5011378;28;20206;-49
2023/10/26 13:58:08;;;;;;;8.80;7.57;;;;;;;;;;5013614;28;20480;-49
2023/10/26 14:00:36;;;;;;;10.50;7.30;;;;;;;;;;5015182;28;20292;-49
2023/10/26 14:03:03;;;;;;;7.77;6.93;;;;;;;;;;5015046;28;20259;-49
2023/10/26 14:05:29;;;;;;;9.00;7.77;;;;;;;;;;5014860;28;20687;-49
2023/10/26 14:07:55;;;;;;;9.13;7.90;;;;;;;;;;5014725;28;20208;-49
2023/10/26 14:10:21;;;;;;;8.93;8.03;;;;;;;;;;5014791;28;20233;-49
2023/10/26 14:12:47;;;;;;;8.53;7.60;;;;;;;;;;5014698;28;20308;-49
2023/10/26 14:15:14;;;;;;;10.17;7.77;;;;;;;;;;5014843;28;20206;-49
2023/10/26 14:17:40;;;;;;;8.33;7.50;;;;;;;;;;5014501;28;20296;-49
2023/10/26 14:20:08;;;;;;;9.20;8.20;;;;;;;;;;5014521;28;20193;-49
2023/10/26 14:22:35;;;;;;;9.90;7.43;;;;;;;;;;5014559;28;20252;-49
2023/10/26 14:25:01;;;;;;;9.63;7.90;;;;;;;;;;5014550;28;20212;-49
2023/10/26 14:27:27;;;;;;;8.93;7.37;;;;;;;;;;5014478;28;20198;-48
2023/10/26 14:29:53;;;;;;;7.67;6.87;;;;;;;;;;5013064;28;20563;-49
2023/10/26 14:32:19;;;;;;;7.33;6.33;;;;;;;;;;5014301;28;20320;-48
2023/10/26 14:34:45;;;;;;;10.10;6.50;;;;;;;;;;5014320;28;20311;-49